sensor_id;sensor_type;location;lat;lon;timestamp;temperature;humidity
9237;DHT22;24579;42.810;23.214;2022-08-19T00:01:56;20.90;87.60
9237;DHT22;24579;42.810;23.214;2022-08-19T00:04:26;20.90;88.10
9237;DHT22;24579;42.810;23.214;2022-08-19T00:06:54;20.60;88.40
9237;DHT22;24579;42.810;23.214;2022-08-19T00:09:22;20.70;89.40
9237;DHT22;24579;42.810;23.214;2022-08-19T00:11:52;20.70;89.80
9237;DHT22;24579;42.810;23.214;2022-08-19T00:14:21;20.50;90.20
9237;DHT22;24579;42.810;23.214;2022-08-19T00:16:49;20.70;90.50
9237;DHT22;24579;42.810;23.214;2022-08-19T00:19:20;20.80;90.30
9237;DHT22;24579;42.810;23.214;2022-08-19T00:21:47;20.80;90.20
9237;DHT22;24579;42.810;23.214;2022-08-19T00:24:14;20.70;90.30
9237;DHT22;24579;42.810;23.214;2022-08-19T00:26:42;20.60;90.60
9237;DHT22;24579;42.810;23.214;2022-08-19T00:29:14;20.50;90.90
9237;DHT22;24579;42.810;23.214;2022-08-19T00:31:41;20.40;91.00
9237;DHT22;24579;42.810;23.214;2022-08-19T00:34:08;20.30;91.40
9237;DHT22;24579;42.810;23.214;2022-08-19T00:36:37;20.20;91.60
9237;DHT22;24579;42.810;23.214;2022-08-19T00:39:05;20.00;92.10
9237;DHT22;24579;42.810;23.214;2022-08-19T00:41:32;19.90;92.50
9237;DHT22;24579;42.810;23.214;2022-08-19T00:44:02;19.90;92.80
9237;DHT22;24579;42.810;23.214;2022-08-19T00:46:31;20.00;93.00
9237;DHT22;24579;42.810;23.214;2022-08-19T00:48:59;20.00;92.80
9237;DHT22;24579;42.810;23.214;2022-08-19T00:51:29;19.80;92.90
9237;DHT22;24579;42.810;23.214;2022-08-19T00:53:59;19.90;93.20
9237;DHT22;24579;42.810;23.214;2022-08-19T00:56:27;20.00;93.30
9237;DHT22;24579;42.810;23.214;2022-08-19T00:58:55;20.10;93.30
9237;DHT22;24579;42.810;23.214;2022-08-19T01:01:23;20.10;93.50
9237;DHT22;24579;42.810;23.214;2022-08-19T01:03:51;20.10;93.40
9237;DHT22;24579;42.810;23.214;2022-08-19T01:06:19;20.10;93.50
9237;DHT22;24579;42.810;23.214;2022-08-19T01:08:46;20.10;93.80
9237;DHT22;24579;42.810;23.214;2022-08-19T01:11:13;20.10;94.00
9237;DHT22;24579;42.810;23.214;2022-08-19T01:13:40;20.00;94.10
9237;DHT22;24579;42.810;23.214;2022-08-19T01:16:10;20.00;94.40
9237;DHT22;24579;42.810;23.214;2022-08-19T01:18:40;19.80;94.60
9237;DHT22;24579;42.810;23.214;2022-08-19T01:21:12;19.70;95.20
9237;DHT22;24579;42.810;23.214;2022-08-19T01:23:44;19.80;95.30
9237;DHT22;24579;42.810;23.214;2022-08-19T01:26:14;19.80;95.60
9237;DHT22;24579;42.810;23.214;2022-08-19T01:28:43;19.60;95.50
9237;DHT22;24579;42.810;23.214;2022-08-19T01:31:14;19.60;95.70
9237;DHT22;24579;42.810;23.214;2022-08-19T01:33:41;19.70;95.80
9237;DHT22;24579;42.810;23.214;2022-08-19T01:36:11;19.70;95.80
9237;DHT22;24579;42.810;23.214;2022-08-19T01:38:41;19.60;95.80
9237;DHT22;24579;42.810;23.214;2022-08-19T01:41:11;19.50;96.10
9237;DHT22;24579;42.810;23.214;2022-08-19T01:43:38;19.40;96.40
9237;DHT22;24579;42.810;23.214;2022-08-19T01:46:06;19.50;96.40
9237;DHT22;24579;42.810;23.214;2022-08-19T01:48:35;19.60;96.40
9237;DHT22;24579;42.810;23.214;2022-08-19T01:51:03;19.60;96.40
9237;DHT22;24579;42.810;23.214;2022-08-19T01:53:30;19.20;96.60
9237;DHT22;24579;42.810;23.214;2022-08-19T01:55:58;18.90;98.50
9237;DHT22;24579;42.810;23.214;2022-08-19T01:58:29;19.00;98.90
9237;DHT22;24579;42.810;23.214;2022-08-19T02:00:57;19.10;99.10
9237;DHT22;24579;42.810;23.214;2022-08-19T02:03:24;18.90;99.30
9237;DHT22;24579;42.810;23.214;2022-08-19T02:05:55;18.80;99.80
9237;DHT22;24579;42.810;23.214;2022-08-19T02:08:22;19.00;99.90
9237;DHT22;24579;42.810;23.214;2022-08-19T02:10:49;19.10;99.80
9237;DHT22;24579;42.810;23.214;2022-08-19T02:13:16;19.20;99.50
9237;DHT22;24579;42.810;23.214;2022-08-19T02:15:44;19.20;99.30
9237;DHT22;24579;42.810;23.214;2022-08-19T02:18:12;19.10;99.40
9237;DHT22;24579;42.810;23.214;2022-08-19T02:20:40;19.20;99.60
9237;DHT22;24579;42.810;23.214;2022-08-19T02:23:07;19.30;99.60
9237;DHT22;24579;42.810;23.214;2022-08-19T02:25:34;19.20;99.60
9237;DHT22;24579;42.810;23.214;2022-08-19T02:28:02;19.20;99.70
9237;DHT22;24579;42.810;23.214;2022-08-19T02:30:29;19.20;99.80
9237;DHT22;24579;42.810;23.214;2022-08-19T02:32:58;19.00;99.90
9237;DHT22;24579;42.810;23.214;2022-08-19T02:35:25;19.00;99.90
9237;DHT22;24579;42.810;23.214;2022-08-19T02:37:52;18.70;99.90
9237;DHT22;24579;42.810;23.214;2022-08-19T02:40:37;18.40;99.90
9237;DHT22;24579;42.810;23.214;2022-08-19T02:43:06;18.30;99.90
9237;DHT22;24579;42.810;23.214;2022-08-19T02:45:34;18.40;99.90
9237;DHT22;24579;42.810;23.214;2022-08-19T02:48:04;18.50;99.90
9237;DHT22;24579;42.810;23.214;2022-08-19T02:50:31;18.40;99.90
9237;DHT22;24579;42.810;23.214;2022-08-19T02:52:58;18.50;99.90
9237;DHT22;24579;42.810;23.214;2022-08-19T02:55:25;18.60;99.90
9237;DHT22;24579;42.810;23.214;2022-08-19T02:57:52;18.60;99.90
9237;DHT22;24579;42.810;23.214;2022-08-19T03:00:20;18.70;99.90
9237;DHT22;24579;42.810;23.214;2022-08-19T03:02:47;18.70;99.90
9237;DHT22;24579;42.810;23.214;2022-08-19T03:05:16;18.60;99.90
9237;DHT22;24579;42.810;23.214;2022-08-19T03:07:43;18.60;99.90
9237;DHT22;24579;42.810;23.214;2022-08-19T03:10:10;18.60;99.90
9237;DHT22;24579;42.810;23.214;2022-08-19T03:12:38;18.60;99.90
9237;DHT22;24579;42.810;23.214;2022-08-19T03:15:07;18.60;99.90
9237;DHT22;24579;42.810;23.214;2022-08-19T03:17:34;18.40;99.90
9237;DHT22;24579;42.810;23.214;2022-08-19T03:20:02;18.20;99.90
9237;DHT22;24579;42.810;23.214;2022-08-19T03:22:31;18.00;99.90
9237;DHT22;24579;42.810;23.214;2022-08-19T03:24:59;17.80;99.90
9237;DHT22;24579;42.810;23.214;2022-08-19T03:27:26;18.00;99.90
9237;DHT22;24579;42.810;23.214;2022-08-19T03:29:54;18.00;99.90
9237;DHT22;24579;42.810;23.214;2022-08-19T03:32:21;18.00;99.90
9237;DHT22;24579;42.810;23.214;2022-08-19T03:34:48;18.00;99.90
9237;DHT22;24579;42.810;23.214;2022-08-19T03:37:16;18.20;99.90
9237;DHT22;24579;42.810;23.214;2022-08-19T03:39:44;17.90;99.90
9237;DHT22;24579;42.810;23.214;2022-08-19T03:42:12;17.40;99.90
9237;DHT22;24579;42.810;23.214;2022-08-19T03:44:39;17.40;99.90
9237;DHT22;24579;42.810;23.214;2022-08-19T03:47:07;17.30;99.90
9237;DHT22;24579;42.810;23.214;2022-08-19T03:49:34;17.40;99.90
9237;DHT22;24579;42.810;23.214;2022-08-19T03:52:02;17.30;99.90
9237;DHT22;24579;42.810;23.214;2022-08-19T03:54:32;17.00;99.90
9237;DHT22;24579;42.810;23.214;2022-08-19T03:57:01;17.00;99.90
9237;DHT22;24579;42.810;23.214;2022-08-19T03:59:30;17.10;99.90
9237;DHT22;24579;42.810;23.214;2022-08-19T04:02:01;17.10;99.90
9237;DHT22;24579;42.810;23.214;2022-08-19T04:04:28;17.10;99.90
9237;DHT22;24579;42.810;23.214;2022-08-19T04:06:56;17.20;99.90
9237;DHT22;24579;42.810;23.214;2022-08-19T04:09:23;17.60;99.90
9237;DHT22;24579;42.810;23.214;2022-08-19T04:11:52;17.80;99.90
9237;DHT22;24579;42.810;23.214;2022-08-19T04:14:23;18.10;99.90
9237;DHT22;24579;42.810;23.214;2022-08-19T04:16:52;18.20;99.90
9237;DHT22;24579;42.810;23.214;2022-08-19T04:19:19;18.40;99.90
9237;DHT22;24579;42.810;23.214;2022-08-19T04:21:49;18.50;99.90
9237;DHT22;24579;42.810;23.214;2022-08-19T04:24:16;18.60;99.90
9237;DHT22;24579;42.810;23.214;2022-08-19T04:26:44;18.60;99.90
9237;DHT22;24579;42.810;23.214;2022-08-19T04:29:14;18.60;99.90
9237;DHT22;24579;42.810;23.214;2022-08-19T04:31:44;18.60;99.90
9237;DHT22;24579;42.810;23.214;2022-08-19T04:34:13;18.80;99.90
9237;DHT22;24579;42.810;23.214;2022-08-19T04:36:42;18.80;99.90
9237;DHT22;24579;42.810;23.214;2022-08-19T04:39:12;18.70;99.90
9237;DHT22;24579;42.810;23.214;2022-08-19T04:41:40;18.70;99.90
9237;DHT22;24579;42.810;23.214;2022-08-19T04:44:25;18.80;99.90
9237;DHT22;24579;42.810;23.214;2022-08-19T04:46:53;18.70;99.90
9237;DHT22;24579;42.810;23.214;2022-08-19T04:49:22;18.80;99.90
9237;DHT22;24579;42.810;23.214;2022-08-19T04:51:51;18.50;99.90
9237;DHT22;24579;42.810;23.214;2022-08-19T04:54:21;18.40;99.90
9237;DHT22;24579;42.810;23.214;2022-08-19T04:56:49;18.70;99.90
9237;DHT22;24579;42.810;23.214;2022-08-19T04:59:17;18.90;99.90
9237;DHT22;24579;42.810;23.214;2022-08-19T05:01:45;19.20;99.90
9237;DHT22;24579;42.810;23.214;2022-08-19T05:04:18;19.30;99.90
9237;DHT22;24579;42.810;23.214;2022-08-19T05:06:46;19.40;99.90
9237;DHT22;24579;42.810;23.214;2022-08-19T05:09:14;19.60;99.90
9237;DHT22;24579;42.810;23.214;2022-08-19T05:11:43;19.70;99.90
9237;DHT22;24579;42.810;23.214;2022-08-19T05:14:11;19.70;99.90
9237;DHT22;24579;42.810;23.214;2022-08-19T05:16:40;19.90;99.90
9237;DHT22;24579;42.810;23.214;2022-08-19T05:19:07;20.00;99.90
9237;DHT22;24579;42.810;23.214;2022-08-19T05:21:54;20.10;99.90
9237;DHT22;24579;42.810;23.214;2022-08-19T05:24:38;20.10;99.90
9237;DHT22;24579;42.810;23.214;2022-08-19T05:27:05;20.30;99.90
9237;DHT22;24579;42.810;23.214;2022-08-19T05:29:33;20.50;99.90
9237;DHT22;24579;42.810;23.214;2022-08-19T05:32:02;20.40;99.90
9237;DHT22;24579;42.810;23.214;2022-08-19T05:34:30;20.40;99.90
9237;DHT22;24579;42.810;23.214;2022-08-19T05:37:01;20.40;99.90
9237;DHT22;24579;42.810;23.214;2022-08-19T05:39:33;20.50;99.90
9237;DHT22;24579;42.810;23.214;2022-08-19T05:42:02;20.70;99.90
9237;DHT22;24579;42.810;23.214;2022-08-19T05:44:32;21.00;99.90
9237;DHT22;24579;42.810;23.214;2022-08-19T05:47:00;20.80;99.90
9237;DHT22;24579;42.810;23.214;2022-08-19T05:49:28;20.70;99.90
9237;DHT22;24579;42.810;23.214;2022-08-19T05:51:55;20.70;99.90
9237;DHT22;24579;42.810;23.214;2022-08-19T05:54:24;20.90;99.60
9237;DHT22;24579;42.810;23.214;2022-08-19T05:56:53;21.00;98.50
9237;DHT22;24579;42.810;23.214;2022-08-19T05:59:21;21.30;97.80
9237;DHT22;24579;42.810;23.214;2022-08-19T06:01:50;21.40;97.20
9237;DHT22;24579;42.810;23.214;2022-08-19T06:04:18;21.60;96.10
9237;DHT22;24579;42.810;23.214;2022-08-19T06:06:46;21.70;95.80
9237;DHT22;24579;42.810;23.214;2022-08-19T06:09:13;22.00;95.40
9237;DHT22;24579;42.810;23.214;2022-08-19T06:11:44;22.10;94.30
9237;DHT22;24579;42.810;23.214;2022-08-19T06:14:13;22.10;94.00
9237;DHT22;24579;42.810;23.214;2022-08-19T06:16:41;21.90;94.20
9237;DHT22;24579;42.810;23.214;2022-08-19T06:19:10;22.10;93.70
9237;DHT22;24579;42.810;23.214;2022-08-19T06:21:39;22.30;94.70
9237;DHT22;24579;42.810;23.214;2022-08-19T06:24:08;22.30;94.40
9237;DHT22;24579;42.810;23.214;2022-08-19T06:26:36;22.50;94.40
9237;DHT22;24579;42.810;23.214;2022-08-19T06:29:06;22.90;93.70
9237;DHT22;24579;42.810;23.214;2022-08-19T06:31:35;23.20;92.90
9237;DHT22;24579;42.810;23.214;2022-08-19T06:34:03;23.40;91.60
9237;DHT22;24579;42.810;23.214;2022-08-19T06:36:36;23.50;90.70
9237;DHT22;24579;42.810;23.214;2022-08-19T06:39:06;23.70;90.90
9237;DHT22;24579;42.810;23.214;2022-08-19T06:41:35;23.90;90.00
9237;DHT22;24579;42.810;23.214;2022-08-19T06:44:06;24.00;87.60
9237;DHT22;24579;42.810;23.214;2022-08-19T06:46:33;24.20;88.70
9237;DHT22;24579;42.810;23.214;2022-08-19T06:49:00;24.10;84.20
9237;DHT22;24579;42.810;23.214;2022-08-19T06:51:27;24.40;83.70
9237;DHT22;24579;42.810;23.214;2022-08-19T06:53:55;24.60;86.30
9237;DHT22;24579;42.810;23.214;2022-08-19T06:56:24;24.90;85.40
9237;DHT22;24579;42.810;23.214;2022-08-19T06:58:56;25.10;81.90
9237;DHT22;24579;42.810;23.214;2022-08-19T07:01:24;25.10;80.30
9237;DHT22;24579;42.810;23.214;2022-08-19T07:03:51;25.00;84.20
9237;DHT22;24579;42.810;23.214;2022-08-19T07:06:19;24.90;79.80
9237;DHT22;24579;42.810;23.214;2022-08-19T07:08:47;24.70;80.30
9237;DHT22;24579;42.810;23.214;2022-08-19T07:11:16;24.90;80.60
9237;DHT22;24579;42.810;23.214;2022-08-19T07:13:45;25.20;81.00
9237;DHT22;24579;42.810;23.214;2022-08-19T07:16:17;25.80;79.10
9237;DHT22;24579;42.810;23.214;2022-08-19T07:18:47;26.10;76.90
9237;DHT22;24579;42.810;23.214;2022-08-19T07:21:17;25.90;76.00
9237;DHT22;24579;42.810;23.214;2022-08-19T07:23:45;26.10;74.50
9237;DHT22;24579;42.810;23.214;2022-08-19T07:26:17;26.50;76.20
9237;DHT22;24579;42.810;23.214;2022-08-19T07:28:45;26.80;76.90
9237;DHT22;24579;42.810;23.214;2022-08-19T07:31:14;27.00;75.60
9237;DHT22;24579;42.810;23.214;2022-08-19T07:33:42;27.10;74.10
9237;DHT22;24579;42.810;23.214;2022-08-19T07:36:12;27.30;73.50
9237;DHT22;24579;42.810;23.214;2022-08-19T07:38:41;27.40;75.20
9237;DHT22;24579;42.810;23.214;2022-08-19T07:41:10;27.60;73.80
9237;DHT22;24579;42.810;23.214;2022-08-19T07:43:38;28.00;70.70
9237;DHT22;24579;42.810;23.214;2022-08-19T07:46:06;28.20;68.50
9237;DHT22;24579;42.810;23.214;2022-08-19T07:48:33;28.30;68.60
9237;DHT22;24579;42.810;23.214;2022-08-19T07:51:02;28.20;69.50
9237;DHT22;24579;42.810;23.214;2022-08-19T07:53:31;28.20;72.10
9237;DHT22;24579;42.810;23.214;2022-08-19T07:55:59;28.30;69.70
9237;DHT22;24579;42.810;23.214;2022-08-19T07:58:31;28.70;67.20
9237;DHT22;24579;42.810;23.214;2022-08-19T08:00:59;28.70;66.10
9237;DHT22;24579;42.810;23.214;2022-08-19T08:03:27;28.60;64.80
9237;DHT22;24579;42.810;23.214;2022-08-19T08:06:08;28.70;66.10
9237;DHT22;24579;42.810;23.214;2022-08-19T08:08:54;28.70;64.50
9237;DHT22;24579;42.810;23.214;2022-08-19T08:11:49;28.80;61.40
9237;DHT22;24579;42.810;23.214;2022-08-19T08:14:19;28.90;63.90
9237;DHT22;24579;42.810;23.214;2022-08-19T08:16:48;29.20;61.80
9237;DHT22;24579;42.810;23.214;2022-08-19T08:19:17;29.40;62.80
9237;DHT22;24579;42.810;23.214;2022-08-19T08:21:45;29.40;63.10
9237;DHT22;24579;42.810;23.214;2022-08-19T08:24:13;29.60;64.10
9237;DHT22;24579;42.810;23.214;2022-08-19T08:26:41;30.00;61.50
9237;DHT22;24579;42.810;23.214;2022-08-19T08:29:10;30.10;59.60
9237;DHT22;24579;42.810;23.214;2022-08-19T08:31:37;30.00;57.90
9237;DHT22;24579;42.810;23.214;2022-08-19T08:34:04;30.00;57.30
9237;DHT22;24579;42.810;23.214;2022-08-19T08:36:31;30.50;58.60
9237;DHT22;24579;42.810;23.214;2022-08-19T08:38:59;30.80;57.80
9237;DHT22;24579;42.810;23.214;2022-08-19T08:41:31;31.30;58.80
9237;DHT22;24579;42.810;23.214;2022-08-19T08:44:02;31.50;56.30
9237;DHT22;24579;42.810;23.214;2022-08-19T08:46:34;31.40;56.00
9237;DHT22;24579;42.810;23.214;2022-08-19T08:49:15;31.60;56.30
9237;DHT22;24579;42.810;23.214;2022-08-19T08:51:46;31.40;55.30
9237;DHT22;24579;42.810;23.214;2022-08-19T08:54:19;31.40;55.40
9237;DHT22;24579;42.810;23.214;2022-08-19T08:56:49;31.90;56.00
9237;DHT22;24579;42.810;23.214;2022-08-19T08:59:21;32.50;54.80
9237;DHT22;24579;42.810;23.214;2022-08-19T09:01:51;32.30;52.40
9237;DHT22;24579;42.810;23.214;2022-08-19T09:04:18;32.10;52.90
9237;DHT22;24579;42.810;23.214;2022-08-19T09:06:51;32.00;53.40
9237;DHT22;24579;42.810;23.214;2022-08-19T09:09:26;31.90;53.20
9237;DHT22;24579;42.810;23.214;2022-08-19T09:12:04;31.60;53.00
9237;DHT22;24579;42.810;23.214;2022-08-19T09:14:39;32.20;53.40
9237;DHT22;24579;42.810;23.214;2022-08-19T09:17:12;32.30;51.10
9237;DHT22;24579;42.810;23.214;2022-08-19T09:19:50;32.50;52.00
9237;DHT22;24579;42.810;23.214;2022-08-19T09:22:17;33.10;50.50
9237;DHT22;24579;42.810;23.214;2022-08-19T09:24:46;33.30;49.50
9237;DHT22;24579;42.810;23.214;2022-08-19T09:27:14;33.50;47.20
9237;DHT22;24579;42.810;23.214;2022-08-19T09:29:42;33.50;47.30
9237;DHT22;24579;42.810;23.214;2022-08-19T09:32:09;33.30;46.80
9237;DHT22;24579;42.810;23.214;2022-08-19T09:34:36;33.30;46.00
9237;DHT22;24579;42.810;23.214;2022-08-19T09:37:03;33.50;46.30
9237;DHT22;24579;42.810;23.214;2022-08-19T09:39:30;34.10;45.40
9237;DHT22;24579;42.810;23.214;2022-08-19T09:41:57;34.20;44.20
9237;DHT22;24579;42.810;23.214;2022-08-19T09:44:26;34.30;44.60
9237;DHT22;24579;42.810;23.214;2022-08-19T09:46:53;34.40;44.00
9237;DHT22;24579;42.810;23.214;2022-08-19T09:49:20;34.10;41.80
9237;DHT22;24579;42.810;23.214;2022-08-19T09:51:49;34.70;41.20
9237;DHT22;24579;42.810;23.214;2022-08-19T09:54:17;35.60;40.00
9237;DHT22;24579;42.810;23.214;2022-08-19T09:56:44;35.00;39.10
9237;DHT22;24579;42.810;23.214;2022-08-19T09:59:11;34.80;40.30
9237;DHT22;24579;42.810;23.214;2022-08-19T10:01:40;34.80;39.20
9237;DHT22;24579;42.810;23.214;2022-08-19T10:04:07;35.40;42.10
9237;DHT22;24579;42.810;23.214;2022-08-19T10:06:36;35.60;39.20
9237;DHT22;24579;42.810;23.214;2022-08-19T10:09:04;35.50;40.30
9237;DHT22;24579;42.810;23.214;2022-08-19T10:11:32;36.10;39.50
9237;DHT22;24579;42.810;23.214;2022-08-19T10:13:59;36.50;37.00
9237;DHT22;24579;42.810;23.214;2022-08-19T10:16:26;36.00;37.40
9237;DHT22;24579;42.810;23.214;2022-08-19T10:18:54;35.40;37.30
9237;DHT22;24579;42.810;23.214;2022-08-19T10:21:24;35.30;37.00
9237;DHT22;24579;42.810;23.214;2022-08-19T10:23:53;35.20;37.80
9237;DHT22;24579;42.810;23.214;2022-08-19T10:26:23;35.90;38.10
9237;DHT22;24579;42.810;23.214;2022-08-19T10:28:50;35.20;36.90
9237;DHT22;24579;42.810;23.214;2022-08-19T10:31:19;35.30;38.00
9237;DHT22;24579;42.810;23.214;2022-08-19T10:33:47;35.30;38.60
9237;DHT22;24579;42.810;23.214;2022-08-19T10:36:17;35.50;39.20
9237;DHT22;24579;42.810;23.214;2022-08-19T10:38:46;35.70;38.60
9237;DHT22;24579;42.810;23.214;2022-08-19T10:41:16;36.70;37.70
9237;DHT22;24579;42.810;23.214;2022-08-19T10:43:44;36.70;36.90
9237;DHT22;24579;42.810;23.214;2022-08-19T10:46:13;36.90;37.00
9237;DHT22;24579;42.810;23.214;2022-08-19T10:48:41;36.50;37.10
9237;DHT22;24579;42.810;23.214;2022-08-19T10:51:09;36.20;37.50
9237;DHT22;24579;42.810;23.214;2022-08-19T10:53:55;36.30;37.60
9237;DHT22;24579;42.810;23.214;2022-08-19T10:56:24;36.80;39.20
9237;DHT22;24579;42.810;23.214;2022-08-19T10:59:08;36.50;38.50
9237;DHT22;24579;42.810;23.214;2022-08-19T11:01:38;35.90;38.80
9237;DHT22;24579;42.810;23.214;2022-08-19T11:04:05;36.00;39.00
9237;DHT22;24579;42.810;23.214;2022-08-19T11:06:35;36.00;37.60
9237;DHT22;24579;42.810;23.214;2022-08-19T11:09:03;36.60;37.40
9237;DHT22;24579;42.810;23.214;2022-08-19T11:11:31;36.70;37.30
9237;DHT22;24579;42.810;23.214;2022-08-19T11:13:58;36.20;38.80
9237;DHT22;24579;42.810;23.214;2022-08-19T11:16:26;36.20;37.30
9237;DHT22;24579;42.810;23.214;2022-08-19T11:18:58;36.50;37.00
9237;DHT22;24579;42.810;23.214;2022-08-19T11:21:27;36.80;38.70
9237;DHT22;24579;42.810;23.214;2022-08-19T11:23:58;36.30;39.80
9237;DHT22;24579;42.810;23.214;2022-08-19T11:26:28;36.80;38.90
9237;DHT22;24579;42.810;23.214;2022-08-19T11:28:56;37.30;37.20
9237;DHT22;24579;42.810;23.214;2022-08-19T11:31:25;37.70;36.30
9237;DHT22;24579;42.810;23.214;2022-08-19T11:33:53;37.50;35.40
9237;DHT22;24579;42.810;23.214;2022-08-19T11:36:21;36.90;35.50
9237;DHT22;24579;42.810;23.214;2022-08-19T11:38:49;37.10;35.50
9237;DHT22;24579;42.810;23.214;2022-08-19T11:41:17;37.30;35.60
9237;DHT22;24579;42.810;23.214;2022-08-19T11:43:46;37.80;35.20
9237;DHT22;24579;42.810;23.214;2022-08-19T11:46:15;38.40;34.90
9237;DHT22;24579;42.810;23.214;2022-08-19T11:48:43;38.50;34.00
9237;DHT22;24579;42.810;23.214;2022-08-19T11:51:13;38.40;34.50
9237;DHT22;24579;42.810;23.214;2022-08-19T11:53:40;38.00;34.10
9237;DHT22;24579;42.810;23.214;2022-08-19T11:56:08;38.00;34.70
9237;DHT22;24579;42.810;23.214;2022-08-19T11:58:36;38.70;34.50
9237;DHT22;24579;42.810;23.214;2022-08-19T12:01:07;38.90;33.80
9237;DHT22;24579;42.810;23.214;2022-08-19T12:03:34;39.20;33.30
9237;DHT22;24579;42.810;23.214;2022-08-19T12:06:04;38.20;33.50
9237;DHT22;24579;42.810;23.214;2022-08-19T12:08:31;38.90;34.20
9237;DHT22;24579;42.810;23.214;2022-08-19T12:10:58;39.50;33.70
9237;DHT22;24579;42.810;23.214;2022-08-19T12:13:27;39.30;32.90
9237;DHT22;24579;42.810;23.214;2022-08-19T12:15:54;39.10;32.70
9237;DHT22;24579;42.810;23.214;2022-08-19T12:18:22;39.00;32.00
9237;DHT22;24579;42.810;23.214;2022-08-19T12:20:51;38.90;32.10
9237;DHT22;24579;42.810;23.214;2022-08-19T12:23:20;37.90;32.80
9237;DHT22;24579;42.810;23.214;2022-08-19T12:25:48;38.00;33.60
9237;DHT22;24579;42.810;23.214;2022-08-19T12:28:18;38.00;33.60
9237;DHT22;24579;42.810;23.214;2022-08-19T12:30:46;37.50;33.90
9237;DHT22;24579;42.810;23.214;2022-08-19T12:33:14;38.30;33.30
9237;DHT22;24579;42.810;23.214;2022-08-19T12:35:42;38.50;33.20
9237;DHT22;24579;42.810;23.214;2022-08-19T12:38:10;38.50;33.20
9237;DHT22;24579;42.810;23.214;2022-08-19T12:40:38;38.70;33.20
9237;DHT22;24579;42.810;23.214;2022-08-19T12:43:06;39.30;33.10
9237;DHT22;24579;42.810;23.214;2022-08-19T12:45:33;39.50;32.80
9237;DHT22;24579;42.810;23.214;2022-08-19T12:48:00;39.20;31.70
9237;DHT22;24579;42.810;23.214;2022-08-19T12:50:27;38.80;32.40
9237;DHT22;24579;42.810;23.214;2022-08-19T12:52:56;38.70;32.70
9237;DHT22;24579;42.810;23.214;2022-08-19T12:55:23;38.40;31.80
9237;DHT22;24579;42.810;23.214;2022-08-19T12:57:51;38.20;32.90
9237;DHT22;24579;42.810;23.214;2022-08-19T13:00:20;38.20;32.70
9237;DHT22;24579;42.810;23.214;2022-08-19T13:02:49;37.90;32.60
9237;DHT22;24579;42.810;23.214;2022-08-19T13:05:19;38.40;32.70
9237;DHT22;24579;42.810;23.214;2022-08-19T13:07:48;38.70;33.00
9237;DHT22;24579;42.810;23.214;2022-08-19T13:10:19;39.50;32.50
9237;DHT22;24579;42.810;23.214;2022-08-19T13:12:48;40.30;31.60
9237;DHT22;24579;42.810;23.214;2022-08-19T13:15:16;40.50;32.10
9237;DHT22;24579;42.810;23.214;2022-08-19T13:17:45;40.00;30.50
9237;DHT22;24579;42.810;23.214;2022-08-19T13:20:13;40.10;31.10
9237;DHT22;24579;42.810;23.214;2022-08-19T13:22:40;39.30;33.50
9237;DHT22;24579;42.810;23.214;2022-08-19T13:25:08;39.80;32.50
9237;DHT22;24579;42.810;23.214;2022-08-19T13:27:37;39.20;31.20
9237;DHT22;24579;42.810;23.214;2022-08-19T13:30:07;38.70;31.20
9237;DHT22;24579;42.810;23.214;2022-08-19T13:32:51;39.00;31.30
9237;DHT22;24579;42.810;23.214;2022-08-19T13:35:35;39.30;32.00
9237;DHT22;24579;42.810;23.214;2022-08-19T13:38:02;39.30;31.20
9237;DHT22;24579;42.810;23.214;2022-08-19T13:40:31;39.60;31.90
9237;DHT22;24579;42.810;23.214;2022-08-19T13:43:02;39.50;31.00
9237;DHT22;24579;42.810;23.214;2022-08-19T13:45:31;40.00;31.60
9237;DHT22;24579;42.810;23.214;2022-08-19T13:48:00;39.00;32.60
9237;DHT22;24579;42.810;23.214;2022-08-19T13:50:32;37.90;33.50
9237;DHT22;24579;42.810;23.214;2022-08-19T13:53:00;37.80;33.10
9237;DHT22;24579;42.810;23.214;2022-08-19T13:55:28;38.10;33.30
9237;DHT22;24579;42.810;23.214;2022-08-19T13:57:58;38.20;34.00
9237;DHT22;24579;42.810;23.214;2022-08-19T14:00:30;38.50;32.20
9237;DHT22;24579;42.810;23.214;2022-08-19T14:02:57;38.20;32.10
9237;DHT22;24579;42.810;23.214;2022-08-19T14:05:26;38.70;32.30
9237;DHT22;24579;42.810;23.214;2022-08-19T14:07:54;38.80;31.90
9237;DHT22;24579;42.810;23.214;2022-08-19T14:10:21;39.10;31.30
9237;DHT22;24579;42.810;23.214;2022-08-19T14:12:51;39.00;31.10
9237;DHT22;24579;42.810;23.214;2022-08-19T14:15:19;38.80;32.10
9237;DHT22;24579;42.810;23.214;2022-08-19T14:17:47;38.60;31.60
9237;DHT22;24579;42.810;23.214;2022-08-19T14:20:15;38.60;31.60
9237;DHT22;24579;42.810;23.214;2022-08-19T14:22:42;38.60;32.20
9237;DHT22;24579;42.810;23.214;2022-08-19T14:25:12;38.30;32.30
9237;DHT22;24579;42.810;23.214;2022-08-19T14:27:40;38.30;33.10
9237;DHT22;24579;42.810;23.214;2022-08-19T14:30:10;38.10;33.00
9237;DHT22;24579;42.810;23.214;2022-08-19T14:32:37;37.90;33.10
9237;DHT22;24579;42.810;23.214;2022-08-19T14:35:06;38.30;32.70
9237;DHT22;24579;42.810;23.214;2022-08-19T14:37:34;38.60;32.80
9237;DHT22;24579;42.810;23.214;2022-08-19T14:40:01;38.70;33.10
9237;DHT22;24579;42.810;23.214;2022-08-19T14:42:29;38.60;32.30
9237;DHT22;24579;42.810;23.214;2022-08-19T14:44:57;38.60;32.80
9237;DHT22;24579;42.810;23.214;2022-08-19T14:47:25;38.60;32.80
9237;DHT22;24579;42.810;23.214;2022-08-19T14:49:52;38.70;32.80
9237;DHT22;24579;42.810;23.214;2022-08-19T14:52:21;38.60;33.10
9237;DHT22;24579;42.810;23.214;2022-08-19T14:54:48;38.00;32.60
9237;DHT22;24579;42.810;23.214;2022-08-19T14:57:15;37.30;33.60
9237;DHT22;24579;42.810;23.214;2022-08-19T14:59:43;37.10;34.00
9237;DHT22;24579;42.810;23.214;2022-08-19T15:02:10;37.70;34.00
9237;DHT22;24579;42.810;23.214;2022-08-19T15:04:37;37.30;33.80
9237;DHT22;24579;42.810;23.214;2022-08-19T15:07:04;37.20;34.10
9237;DHT22;24579;42.810;23.214;2022-08-19T15:09:33;36.80;33.80
9237;DHT22;24579;42.810;23.214;2022-08-19T15:12:01;36.80;34.40
9237;DHT22;24579;42.810;23.214;2022-08-19T15:14:28;36.90;34.20
9237;DHT22;24579;42.810;23.214;2022-08-19T15:17:00;37.30;34.10
9237;DHT22;24579;42.810;23.214;2022-08-19T15:19:28;37.60;34.20
9237;DHT22;24579;42.810;23.214;2022-08-19T15:21:55;37.30;34.20
9237;DHT22;24579;42.810;23.214;2022-08-19T15:24:22;37.00;35.90
9237;DHT22;24579;42.810;23.214;2022-08-19T15:26:52;36.80;35.90
9237;DHT22;24579;42.810;23.214;2022-08-19T15:29:19;36.70;37.10
9237;DHT22;24579;42.810;23.214;2022-08-19T15:31:46;36.50;36.70
9237;DHT22;24579;42.810;23.214;2022-08-19T15:34:13;36.30;37.10
9237;DHT22;24579;42.810;23.214;2022-08-19T15:36:40;36.10;37.10
9237;DHT22;24579;42.810;23.214;2022-08-19T15:39:08;36.10;38.20
9237;DHT22;24579;42.810;23.214;2022-08-19T15:41:36;35.90;37.40